Station CHII2 - Harrison-Dever Crib, Chicago, IL Image indicating link to RSS feed of recent meteorological observations for station CHII2


Conditions at CHII2 as of
(12:30 am CDT)
0530 GMT on 05/20/2024:
     

Click on the graph icon in the table below to see a time series plot of the last five days of that observation.

5-day plot - Wind Direction Wind Direction (WDIR): NW ( 320 deg true )
5-day plot - Wind Speed Wind Speed (WSPD): 2 kts
5-day plot - Wind Gust Wind Gust (GST): 2 kts
5-day plot - Air Temperature Air Temperature (ATMP): 64.9 °F
5-day plot - Dew Point Dew Point (DEWP): 58.1 °F
5-day plot -  Wind Speed, Wind Gust and Atmospheric Pressure Combined plot of Wind Speed, Gust, and Air Pressure
Previous observations
TIME
(CDT)
5-day plot - Wind Direction
WDIR
 
5-day plot - Wind Speed
WSPD
kts
5-day plot - Wind Gust
GST
kts
5-day plot - Wave Height
WVHT
ft
5-day plot - Dominant Wave Period
DPD
sec
5-day plot - Average Wave Period
APD
sec
5-day plot - Mean Wave Direction
MWD
 
5-day plot - Atmospheric Pressure
PRES
in
5-day plot - Pressure Tendency
PTDY
in
5-day plot - Air Temperature
ATMP
°F
5-day plot - Water Temperature
WTMP
°F
5-day plot - Dew Point
DEWP
°F
5-day plot - Salinity
SAL
psu
5-day plot - Visibility
VIS
nmi
5-day plot - Tide (above MLLW)
TIDE
ft
2024-05-20 12:20 amNNW 1 1------ 64.8- 56.1---
2024-05-20 12:10 am E 3 3------ 64.4- 55.8---
2024-05-20 12:00 am SE 3 3------ 64.4- 57.7---
2024-05-19 11:50 pmENE 2 2------ 64.6- 57.4---
2024-05-19 11:40 pm E 3 3------ 64.4- 55.9---
2024-05-19 11:30 pmESE 1 1------ 64.6- 56.1---
2024-05-19 11:20 pmNNW 1 2------ 64.8- 56.1---
2024-05-19 11:10 pm- 0 1------ 64.4- 55.9---
2024-05-19 11:00 pmENE 1 2------ 64.0- 56.3---
2024-05-19 10:50 pmSSE 2 2------ 63.9- 56.8---
2024-05-19 10:40 pm SE 4 4------ 63.7- 56.7---
2024-05-19 10:20 pm SE 6 6------ 64.0- 55.6---
2024-05-19 10:10 pm SE 2 2------ 64.0- 55.2---
2024-05-19 10:00 pm E 2 3------ 64.2- 55.4---
2024-05-19 09:50 pm E 2 2------ 64.0- 54.3---
2024-05-19 09:40 pmESE 1 2------ 63.9- 54.7---
2024-05-19 09:30 pm E 2 2------ 63.9- 55.0---
2024-05-19 09:20 pm E 1 2------ 64.0- 54.3---
2024-05-19 09:10 pm E 2 2------ 64.0- 55.4---
2024-05-19 09:00 pm E 3 4------ 64.0- 54.9---
2024-05-19 08:50 pm E 3 4------ 64.4- 54.5---
2024-05-19 08:40 pm E 3 4------ 64.4- 54.9---
2024-05-19 08:30 pm E 2 3------ 64.2- 55.2---
2024-05-19 08:20 pm NE 1 1------ 64.6- 54.7---
2024-05-19 08:10 pm E 1 1------ 64.4- 54.5---
2024-05-19 08:00 pmNNW 2 3------ 64.8- 54.3---
2024-05-19 07:50 pm N 2 2------ 64.4- 54.9---
2024-05-19 07:40 pmNNE 2 3------ 64.6- 55.0---
2024-05-19 07:30 pm NE 4 5------ 64.9- 54.1---
2024-05-19 07:20 pmNNE 2 3------ 65.3- 54.9---
2024-05-19 07:10 pmENE 3 5------ 64.9- 53.8---
2024-05-19 07:00 pm E 3 4------ 65.1- 54.5---
2024-05-19 06:50 pmESE 3 4------ 66.4- 55.6---
2024-05-19 06:40 pm E 3 4------ 65.5- 55.4---
2024-05-19 06:30 pm E 3 4------ 64.4- 55.4---
2024-05-19 06:20 pmENE 4 4------ 64.4- 55.9---
2024-05-19 06:10 pmENE 3 4------ 64.8- 56.3---
2024-05-19 06:00 pm E 5 6------ 64.8- 55.6---
2024-05-19 05:50 pm E 5 5------ 64.6- 55.2---
2024-05-19 05:40 pm E 6 7------ 64.6- 55.8---
2024-05-19 05:30 pm E 7 8------ 64.8- 54.5---
2024-05-19 05:20 pm E 6 7------ 64.9- 54.9---
2024-05-19 05:10 pm E 4 5------ 65.3- 55.0---
2024-05-19 05:00 pm NE 4 4------ 64.6- 54.1---
2024-05-19 04:50 pmNNE 3 4------ 64.9- 54.3---
2024-05-19 04:40 pm N 4 5------ 64.6- 54.1---
2024-05-19 04:30 pmNNE 8 9------ 64.4- 53.8---
2024-05-19 04:20 pmNNE 8 9------ 64.4- 53.8---
2024-05-19 04:10 pm NE 8 10------ 64.4- 54.1---
2024-05-19 04:00 pmNNE 9 10------ 64.9- 53.6---
2024-05-19 03:50 pmNNE 10 11------ 64.9- 54.0---
2024-05-19 03:40 pm N 10 11------ 64.9- 54.1---
2024-05-19 03:30 pm N 12 13------ 65.1- 54.9---
2024-05-19 03:20 pm N 13 15------ 65.1- 54.0---
2024-05-19 03:10 pm N 11 12------ 65.1- 53.6---
2024-05-19 03:00 pm N 11 13------ 65.1- 54.3---
2024-05-19 02:50 pm N 12 13------ 64.9- 54.3---
2024-05-19 02:40 pm N 14 15------ 65.1- 53.4---
2024-05-19 02:30 pm N 13 16------ 65.3- 54.5---
2024-05-19 02:20 pm N 13 14------ 65.3- 54.0---
2024-05-19 02:10 pm N 13 15------ 64.9- 54.1---
2024-05-19 02:00 pm N 12 13------ 65.1- 55.2---
2024-05-19 01:50 pm N 12 14------ 65.1- 55.2---
2024-05-19 01:40 pm N 11 12------ 65.1- 55.2---
2024-05-19 01:30 pm N 11 12------ 65.1- 55.4---
2024-05-19 01:20 pm N 10 12------ 65.1- 55.8---
2024-05-19 01:10 pm N 14 15------ 65.5- 55.4---
2024-05-19 01:00 pm N 12 14------ 65.3- 55.8---
2024-05-19 12:50 pm N 13 15------ 65.3- 55.6---
2024-05-19 12:40 pm N 14 15------ 65.3- 55.4---
2024-05-19 12:30 pm N 14 15------ 65.3- 55.8---
2024-05-19 12:20 pm N 14 15------ 65.3- 56.7---
2024-05-19 12:10 pm N 14 16------ 65.3- 56.7---
2024-05-19 12:00 pm N 14 15------ 65.3- 57.2---
2024-05-19 11:50 am N 14 16------ 65.3- 57.0---
2024-05-19 11:40 am N 15 17------ 65.7- 57.0---
2024-05-19 11:30 am N 15 17------ 66.2- 56.8---
2024-05-19 11:20 am N 15 16------ 66.6- 56.8---
2024-05-19 11:10 am N 14 16------ 67.1- 56.8---
2024-05-19 11:00 am N 14 15------ 67.3- 57.0---
2024-05-19 10:50 am N 14 16------ 67.6- 56.7---
2024-05-19 10:40 am N 15 16------ 67.8- 57.2---
2024-05-19 10:30 am N 15 16------ 68.2- 56.7---
2024-05-19 10:20 am N 14 15------ 68.4- 57.4---
2024-05-19 10:10 am N 15 17------ 68.5- 56.8---
2024-05-19 10:00 am N 13 14------ 68.7- 57.6---
2024-05-19 09:50 am N 12 14------ 69.3- 57.4---
2024-05-19 09:40 am N 12 13------ 69.6- 57.6---
2024-05-19 09:30 am N 14 15------ 69.8- 57.9---
2024-05-19 09:20 am N 11 13------ 69.4- 59.2---
2024-05-19 09:10 amNNW 11 12------ 69.6- 59.4---
2024-05-19 09:00 amNNW 11 12------ 69.8- 59.2---
2024-05-19 08:50 am N 13 13------ 70.0- 59.4---
2024-05-19 08:40 am N 13 16------ 69.6- 60.1---
2024-05-19 08:30 am N 15 16------ 70.0- 60.1---
2024-05-19 08:20 am N 15 16------ 70.0- 60.1---
2024-05-19 08:10 am N 16 18------ 70.7- 60.3---
2024-05-19 08:00 amNNW 14 15------ 70.2- 61.9---
2024-05-19 07:50 am N 15 17------ 70.5- 61.2---
2024-05-19 07:40 am N 17 18------ 71.4- 61.0---
2024-05-19 07:30 am N 14 15------ 71.6- 62.6---
2024-05-19 07:20 am N 13 14------ 72.3- 63.7---
2024-05-19 07:10 am N 13 14------ 72.5- 63.3---
2024-05-19 07:00 am N 14 14------ 72.9- 63.7---
2024-05-19 06:50 am N 12 14------ 72.7- 64.2---
2024-05-19 06:40 am N 14 15------ 73.9- 64.2---
2024-05-19 06:30 amNNW 13 14------ 75.2- 64.9---
2024-05-19 06:20 amNNW 13 14------ 76.5- 65.1---
2024-05-19 06:10 amNNW 11 12------ 77.2- 65.1---
2024-05-19 06:00 am NW 10 12------ 77.7- 66.2---
2024-05-19 05:50 amWNW 10 11------ 77.7- 66.4---
2024-05-19 05:40 am W 10 12------ 77.9- 66.4---
2024-05-19 05:30 am W 10 11------ 77.9- 66.4---
2024-05-19 05:20 am W 8 9------ 77.5- 66.2---
2024-05-19 05:10 am W 8 8------ 76.8- 66.2---
2024-05-19 05:00 am W 4 4------ 76.1- 66.0---
2024-05-19 04:50 amSSW 3 4------ 75.6- 66.4---
2024-05-19 04:40 am W 12 14------ 79.0- 66.4---
2024-05-19 04:30 amWSW 13 15------ 79.0- 66.2---
2024-05-19 04:20 amWSW 13 16------ 79.5- 66.2---
2024-05-19 04:10 amWSW 10 14------ 79.2- 66.0---
2024-05-19 04:00 amSSW 10 11------ 74.8- 66.2---
2024-05-19 03:50 amSSW 11 13------ 75.2- 65.8---
2024-05-19 03:40 amSSW 14 17------ 76.3- 65.7---
2024-05-19 03:30 amSSW 14 16------ 75.9- 65.8---
2024-05-19 03:20 amSSW 16 18------ 76.6- 65.7---
2024-05-19 03:10 amSSW 14 17------ 75.9- 65.7---
2024-05-19 03:00 amSSW 15 16------ 77.0- 65.5---
2024-05-19 02:50 amSSW 15 16------ 77.2- 65.7---
2024-05-19 02:40 amSSW 14 15------ 78.3- 65.5---
2024-05-19 02:30 amSSW 15 16------ 78.3- 65.5---
2024-05-19 02:20 am S 16 17------ 78.6- 65.7---
2024-05-19 02:10 am S 15 16------ 79.5- 65.5---
2024-05-19 02:00 amSSW 15 15------ 80.1- 65.5---
2024-05-19 01:50 amSSW 13 14------ 80.4- 65.5---
2024-05-19 01:40 amSSW 16 18------ 80.6- 65.3---
2024-05-19 01:30 amSSW 14 15------ 80.6- 65.3---
2024-05-19 01:20 amSSW 14 15------ 80.4- 65.5---
2024-05-19 01:10 amSSW 13 14------ 80.2- 65.3---
2024-05-19 01:00 amSSW 13 15------ 79.5- 65.7---
2024-05-19 12:50 amSSW 13 14------ 80.4- 65.5---